Map

Track Data

SID SEASON NUMBER BASIN SUBBASIN NAME ISO_TIME NATURE LAT LON WMO_WIND WMO_PRES WMO_AGENCY TRACK_TYPE DIST2LAND LANDFALL IFLAG USA_AGENCY USA_ATCF_ID USA_LAT USA_LON USA_RECORD USA_STATUS USA_WIND USA_PRES USA_SSHS USA_R34_NE USA_R34_SE USA_R34_SW USA_R34_NW USA_R50_NE USA_R50_SE USA_R50_SW USA_R50_NW USA_R64_NE USA_R64_SE USA_R64_SW USA_R64_NW USA_POCI USA_ROCI USA_RMW USA_EYE TOKYO_LAT TOKYO_LON TOKYO_GRADE TOKYO_WIND TOKYO_PRES TOKYO_R50_DIR TOKYO_R50_LONG TOKYO_R50_SHORT TOKYO_R30_DIR TOKYO_R30_LONG TOKYO_R30_SHORT TOKYO_LAND CMA_LAT CMA_LON CMA_CAT CMA_WIND CMA_PRES HKO_LAT HKO_LON HKO_CAT HKO_WIND HKO_PRES NEWDELHI_LAT NEWDELHI_LON NEWDELHI_GRADE NEWDELHI_WIND NEWDELHI_PRES NEWDELHI_CI NEWDELHI_DP NEWDELHI_POCI REUNION_LAT REUNION_LON REUNION_TYPE REUNION_WIND REUNION_PRES REUNION_TNUM REUNION_CI REUNION_RMW REUNION_R34_NE REUNION_R34_SE REUNION_R34_SW REUNION_R34_NW REUNION_R50_NE REUNION_R50_SE REUNION_R50_SW REUNION_R50_NW REUNION_R64_NE REUNION_R64_SE REUNION_R64_SW REUNION_R64_NW BOM_LAT BOM_LON BOM_TYPE BOM_WIND BOM_PRES BOM_TNUM BOM_CI BOM_RMW BOM_R34_NE BOM_R34_SE BOM_R34_SW BOM_R34_NW BOM_R50_NE BOM_R50_SE BOM_R50_SW BOM_R50_NW BOM_R64_NE BOM_R64_SE BOM_R64_SW BOM_R64_NW BOM_ROCI BOM_POCI BOM_EYE BOM_POS_METHOD BOM_PRES_METHOD NADI_LAT NADI_LON NADI_CAT NADI_WIND NADI_PRES WELLINGTON_LAT WELLINGTON_LON WELLINGTON_WIND WELLINGTON_PRES DS824_LAT DS824_LON DS824_STAGE DS824_WIND DS824_PRES TD9636_LAT TD9636_LON TD9636_STAGE TD9636_WIND TD9636_PRES TD9635_LAT TD9635_LON TD9635_WIND TD9635_PRES TD9635_ROCI NEUMANN_LAT NEUMANN_LON NEUMANN_CLASS NEUMANN_WIND NEUMANN_PRES MLC_LAT MLC_LON MLC_CLASS MLC_WIND MLC_PRES USA_GUST BOM_GUST BOM_GUST_PER REUNION_GUST REUNION_GUST_PER USA_SEAHGT USA_SEARAD_NE USA_SEARAD_SE USA_SEARAD_SW USA_SEARAD_NW STORM_SPEED STORM_DIR
1970041S14139 1970 16 SP EA DAWN 1970-02-10 05:00:00 NR -13.9000 138.500 1000 bom main 167 167 ______O___O___ -1 -13.9000 138.500 1000 -13.9000 138.500 1 20 12 60
1970041S14139 1970 16 SP EA DAWN 1970-02-10 06:00:00 TS -13.7997 138.683 main 191 191 O_____P__OP_O_ jtwc_sh SH161970 -13.8000 138.700 20 -1 -13.7617 138.663 999 -13.8000 138.700 TC 30 1000 -13.7870 138.670 1 20 -13.9000 138.700 TC 30 1000 12 54
1970041S14139 1970 16 SP EA DAWN 1970-02-10 09:00:00 TS -13.4234 139.183 main 252 228 P_____P__PP_P_ SH161970 -13.4427 139.193 20 -1 -13.3552 139.158 999 -13.3884 139.191 TC 30 999 -13.4496 139.181 1 21 -13.4827 139.193 TC 30 999 12 53
1970041S14139 1970 16 SP EA DAWN 1970-02-10 11:00:00 TS -13.1812 139.522 999 bom main 228 206 P_____O__PP_P_ SH161970 -13.2116 139.528 20 -1 -13.1000 139.500 999 -13.1254 139.527 TC 30 999 -13.2282 139.526 1 22 -13.2215 139.528 TC 30 999 12 54
1970041S14139 1970 16 SP EA DAWN 1970-02-10 12:00:00 TS -13.0665 139.696 main 206 153 O_____P__OP_O_ jtwc_sh SH161970 -13.1000 139.700 20 -1 -12.9796 139.677 998 -13.0000 139.700 TC 30 999 -13.1192 139.700 1 22 -13.1000 139.700 TC 30 999 12 58
1970041S14139 1970 16 SP EA DAWN 1970-02-10 15:00:00 TS -12.7422 140.235 main 152 108 P_____P__PP_P_ SH161970 -12.7849 140.235 22 -1 -12.6499 140.229 997 -12.6546 140.242 TC 32 997 -12.8016 140.233 1 24 -12.7774 140.235 TC 32 997 12 60
1970041S14139 1970 16 SP EA DAWN 1970-02-10 17:00:00 TS -12.5464 140.609 main 109 87 P_____P__PO_P_ SH161970 -12.5916 140.608 24 -1 -12.4561 140.612 996 -12.4504 140.620 TC 34 996 -12.6000 140.600 1 25 -12.5890 140.608 TC 34 996 12 62
1970041S14139 1970 16 SP EA DAWN 1970-02-10 18:00:00 TS -12.4543 140.801 main 87 32 O_____P__PP_O_ jtwc_sh SH161970 -12.5000 140.800 25 -1 -12.3670 140.807 996 -12.3561 140.812 TC 35 996 -12.5029 140.787 1 26 -12.5000 140.800 TC 35 996 13 65
1970041S14139 1970 16 SP EA DAWN 1970-02-10 21:00:00 TS -12.1938 141.391 main 32 0 P_____P__PP_P_ SH161970 -12.2349 141.392 32 -1 -12.1311 141.400 994 -12.1046 141.401 TC 37 995 -12.2300 141.365 1 31 -12.2274 141.392 TC 40 995 13 67
1970041S14139 1970 16 SP EA DAWN 1970-02-10 23:00:00 TS -12.0415 141.792 994 bom main 10 0 P_____O__PP_P_ SH161970 -12.0749 141.797 37 0 -12.0000 141.800 994 -11.9630 141.800 TC 39 994 -12.0671 141.763 1 35 -12.0692 141.797 TC 43 994 13 69
1970041S14139 1970 16 SP EA DAWN 1970-02-11 00:00:00 TS -11.9729 141.994 main 0 0 O_____P__OP_O_ jtwc_sh SH161970 -12.0000 142.000 40 0 -11.9453 141.998 994 -11.9000 142.000 TC 40 994 -11.9923 141.964 1 36 -12.0000 142.000 TC 45 994 12 72
1970041S14139 1970 16 SP EA DAWN 1970-02-11 03:00:00 TS -11.7870 142.595 main 0 0 P_____P__PP_P_ SH161970 -11.7773 142.592 42 0 -11.8036 142.598 994 -11.7295 142.606 TC 40 994 -11.7993 142.581 1 41 -11.8349 142.600 TC 42 994 12 74
1970041S14139 1970 16 SP EA DAWN 1970-02-11 05:00:00 TS -11.6816 142.999 994 bom main 10 10 P_____O__PO_P_ SH161970 -11.6525 142.994 44 0 -11.7000 143.000 994 -11.6397 143.005 TC 40 994 -11.7000 143.000 2 45 -11.7447 143.000 TC 40 994 12 75
1970041S14139 1970 16 SP EA DAWN 1970-02-11 06:00:00 TS -11.6291 143.203 main 32 32 O_____P__OP_O_ jtwc_sh SH161970 -11.6000 143.200 45 0 -11.6298 143.200 994 -11.6000 143.200 TC 40 994 -11.6451 143.220 2 44 -11.7000 143.200 TC 40 994 13 75
1970041S14139 1970 16 SP EA DAWN 1970-02-11 08:00:00 TS -11.5207 143.617 994 bom main 70 70 P_____O__PP_P_ SH161970 -11.4957 143.625 43 0 -11.5000 143.600 994 -11.5037 143.596 TC 41 993 -11.5511 143.668 2 42 -11.5781 143.589 TC 41 993 13 76
1970041S14139 1970 16 SP EA DAWN 1970-02-11 09:00:00 TS -11.4764 143.828 main 86 86 P_____P__PP_P_ SH161970 -11.4549 143.843 42 0 -11.4530 143.814 993 -11.4625 143.788 TC 42 993 -11.5131 143.894 2 41 -11.5198 143.785 TC 42 993 12 80
1970041S14139 1970 16 SP EA DAWN 1970-02-11 11:00:00 TS -11.4172 144.240 992 bom main 128 128 P_____O__PP_P_ SH161970 -11.4052 144.281 40 0 -11.4000 144.200 992 -11.4079 144.142 TC 44 992 -11.4578 144.345 2 40 -11.4270 144.189 TC 44 992 12 83
1970041S14139 1970 16 SP EA DAWN 1970-02-11 12:00:00 TS -11.4044 144.427 main 147 147 O_____P__OP_O_ jtwc_sh SH161970 -11.4000 144.500 40 0 -11.3846 144.293 991 -11.4000 144.300 TC 45 992 -11.4418 144.567 2 39 -11.4000 144.400 TC 45 992 10 91
1970041S14139 1970 16 SP EA DAWN 1970-02-11 15:00:00 TS -11.4321 144.943 main 197 197 P_____P__PP_P_ SH161970 -11.4475 145.172 37 0 -11.4141 144.400 990 -11.4469 144.598 TC 45 991 -11.4466 145.207 2 36 -11.3901 145.107 TC 45 991 10 97
1970041S14139 1970 16 SP EA DAWN 1970-02-11 17:00:00 TS -11.5111 145.302 990 bom main 235 235 P_____O__PO_P_ SH161970 -11.5390 145.600 35 0 -11.5000 144.600 990 4 -11.5387 144.831 TC 45 990 -11.5000 145.600 2 35 -11.4500 145.579 TC 45 990 11 104
1970041S14139 1970 16 SP EA DAWN 1970-02-11 18:00:00 TS -11.5674 145.510 main 254 250 O_____P__OP_O_ jtwc_sh SH161970 -11.6000 145.800 35 0 -11.5603 144.874 990 -11.6000 145.000 TC 45 990 -11.5441 145.785 2 34 -11.5000 145.800 TC 45 990 14 108
1970041S14139 1970 16 SP EA DAWN 1970-02-11 21:00:00 TS -11.7925 146.207 main 251 234 P_____P__PP_P_ SH161970 -11.8274 146.345 32 -1 -11.8103 145.973 991 -11.8266 145.869 TC 45 991 -11.7434 146.300 2 33 -11.7199 146.410 TC 45 991 14 110
1970041S14139 1970 16 SP EA DAWN 1970-02-11 23:00:00 TS -11.9748 146.649 992 bom main 244 234 P_____O__PP_P_ SH161970 -12.0088 146.658 30 -1 -12.0000 146.700 992 -12.0079 146.510 TC 45 991 -11.9170 146.612 2 32 -11.9062 146.753 TC 45 991 13 116
1970041S14139 1970 16 SP EA DAWN 1970-02-12 00:00:00 TS -12.0710 146.795 main 244 240 O_____P_OOP_O_ jtwc_sh SH161970 -12.1000 146.800 30 -1 -12.0826 146.937 992 -12.2000 145.900 40 990 -12.1000 146.800 TC 45 992 -12.0114 146.758 2 32 -12.0000 146.900 TC 45 992 10 124
1970041S14139 1970 16 SP EA DAWN 1970-02-12 03:00:00 TS -12.3264 147.186 main 250 250 P_____P_PPP_P_ SH161970 -12.3574 147.188 30 -1 -12.3310 147.424 992 -12.3333 146.353 40 990 -12.3519 147.336 TC 45 992 -12.3074 147.161 2 30 -12.2498 147.238 TC 45 992 8 126
1970041S14139 1970 16 SP EA DAWN 1970-02-12 05:00:00 TS -12.4887 147.375 main 265 265 P_____P_PPO_P_ SH161970 -12.5223 147.403 30 -1 -12.4975 147.608 992 -12.4253 146.654 40 990 -12.5207 147.562 TC 45 992 -12.5000 147.400 1 30 -12.4166 147.413 TC 45 992 7 133
1970041S14139 1970 16 SP EA DAWN 1970-02-12 06:00:00 TS -12.5626 147.448 main 276 274 O_____P_PPP_O_ jtwc_sh SH161970 -12.6000 147.500 30 -1 -12.5810 147.672 992 -12.4730 146.805 40 990 -12.6050 147.646 TC 45 992 -12.5794 147.512 1 29 -12.5000 147.500 TC 45 992 7 131
1970041S14139 1970 16 SP EA DAWN 1970-02-12 09:00:00 TS -12.7824 147.717 main 293 292 P_____P_PPP_P_ SH161970 -12.7999 147.758 27 -1 -12.8323 147.808 992 -12.6262 147.254 40 990 -12.8556 147.834 TC 45 992 -12.8127 147.806 1 28 -12.7500 147.800 TC 45 992 7 130
1970041S14139 1970 16 SP EA DAWN 1970-02-12 11:00:00 TS -12.9286 147.887 992 bom main 302 302 P_____O_PPP_P_ SH161970 -12.9302 147.916 25 -1 -13.0000 147.900 992 -12.7393 147.552 40 990 -13.0195 147.941 TC 45 992 -12.9643 147.981 1 27 -12.9166 148.000 TC 45 992 7 131
1970041S14139 1970 16 SP EA DAWN 1970-02-12 12:00:00 TS -13.0046 147.980 main 313 313 O_____P_OOP_O_ jtwc_sh SH161970 -13.0000 148.000 25 -1 -13.0933 147.993 992 -12.8000 147.700 40 990 -13.1000 148.000 TC 45 992 -13.0389 148.065 1 27 -13.0000 148.100 TC 45 992 8 130
1970041S14139 1970 16 SP EA DAWN 1970-02-12 15:00:00 TS -13.2470 148.283 main 333 333 P_____P_PPP_P_ SH161970 -13.2425 148.293 25 -1 -13.3775 148.270 992 -12.9993 148.139 40 990 -13.3592 148.267 TC 43 992 -13.2580 148.318 1 25 -13.2500 148.400 TC 42 992 8 129
1970041S14139 1970 16 SP EA DAWN 1970-02-12 17:00:00 TS -13.4110 148.489 main 348 348 P_____P_PPO_P_ SH161970 -13.4140 148.497 25 -1 -13.5610 148.459 993 -13.1444 148.422 40 990 -13.5270 148.446 TC 42 992 -13.4000 148.500 1 25 -13.4166 148.600 TC 40 992 8 129
1970041S14139 1970 16 SP EA DAWN 1970-02-12 18:00:00 TS -13.4942 148.593 main 354 354 O_____P_PPP_O_ jtwc_sh SH161970 -13.5000 148.600 25 -1 -13.6482 148.557 993 -13.2200 148.560 40 990 -13.6075 148.539 TC 42 993 -13.4834 148.594 1 25 -13.5000 148.700 TC 40 993 8 130
1970041S14139 1970 16 SP EA DAWN 1970-02-12 21:00:00 TS -13.7448 148.899 main 363 363 P_____P_PPP_P_ SH161970 -13.7724 148.878 25 -1 -13.8799 148.869 993 -13.4556 148.951 40 990 -13.8271 148.841 TC 41 993 -13.7337 148.888 1 26 -13.7724 148.985 TC 40 993 8 128
1970041S14139 1970 16 SP EA DAWN 1970-02-12 23:00:00 TS -13.8938 149.117 994 bom main 377 374 P_____O_PPP_P_ SH161970 -13.9337 149.083 25 -1 -14.0000 149.100 994 -13.6180 149.189 40 990 -13.9487 149.073 TC 40 993 -13.8892 149.102 1 27 -13.9337 149.189 TC 40 993 8 123
1970041S14139 1970 16 SP EA DAWN 1970-02-13 00:00:00 TS -13.9587 149.233 main 385 379 O_____P_OOP_O_ jtwc_sh SH161970 -14.0000 149.200 25 -1 -14.0507 149.213 994 -13.7000 149.300 40 990 -14.0000 149.200 TC 40 994 -13.9601 149.217 1 27 -14.0000 149.300 TC 40 994 8 116
1970041S14139 1970 16 SP EA DAWN 1970-02-13 03:00:00 TS -14.1209 149.600 main 386 384 P_____P_PPP_P_ SH161970 -14.1449 149.605 27 -1 -14.1605 149.593 994 -13.9906 149.532 40 990 -14.1365 149.611 TC 40 994 -14.1315 149.601 1 29 -14.1373 149.655 TC 40 994 8 110
1970041S14139 1970 16 SP EA DAWN 1970-02-13 05:00:00 TS -14.1920 149.883 995 bom main 393 392 P_____O_PPO_P_ SH161970 -14.1916 149.925 29 -1 -14.2000 149.900 995 -14.1867 149.665 40 990 -14.1887 149.927 TC 40 994 -14.2000 149.900 1 30 -14.1858 149.939 TC 40 994 9 103
1970041S14139 1970 16 SP EA DAWN 1970-02-13 06:00:00 TS -14.2159 150.040 main 392 391 O_____P_POP_O_ jtwc_sh SH161970 -14.2000 150.100 30 -1 -14.2170 150.077 995 -14.2810 149.733 40 990 -14.2000 150.100 TC 40 995 -14.2133 150.070 1 30 -14.2000 150.100 TC 40 995 10 95
1970041S14139 1970 16 SP EA DAWN 1970-02-13 09:00:00 TS -14.2473 150.570 main 392 392 P_____P_PPP_P_ SH161970 -14.1800 150.678 30 -1 -14.2277 150.678 995 -14.5310 149.966 40 990 -14.1818 150.678 TC 40 995 -14.1929 150.638 1 30 -14.2376 150.677 TC 40 995 11 91
1970041S14139 1970 16 SP EA DAWN 1970-02-13 11:00:00 TS -14.2300 150.956 995 bom main 397 397 P_____O_PPP_P_ SH161970 -14.1302 151.092 30 -1 -14.2000 151.100 995 -14.6552 150.174 40 990 -14.1316 151.093 TC 40 995 -14.1407 151.048 1 30 -14.2224 151.095 TC 40 995 11 86
1970041S14139 1970 16 SP EA DAWN 1970-02-13 12:00:00 TS -14.2111 151.151 main 401 401 O_____P_OOP_O_ jtwc_sh SH161970 -14.1000 151.300 30 -1 -14.1716 151.300 995 -14.7000 150.300 40 990 -14.1000 151.300 TC 40 995 -14.1064 151.259 1 30 -14.2000 151.300 TC 40 995 12 82
1970041S14139 1970 16 SP EA DAWN 1970-02-13 15:00:00 TS -14.1219 151.740 main 406 406 P_____P_PPP_P_ SH161970 -14.0075 151.915 30 -1 -14.0350 151.897 995 -14.7570 150.813 40 990 -13.9889 151.899 TC 40 995 -13.9848 151.891 1 30 -14.0723 151.850 TC 40 995 12 80
1970041S14139 1970 16 SP EA DAWN 1970-02-13 17:00:00 TS -14.0417 152.133 main 410 410 P_____P_PPO_P_ SH161970 -13.9359 152.311 30 -1 -13.9186 152.288 995 -14.7460 151.216 40 990 -13.8976 152.293 TC 40 995 -13.9000 152.300 1 30 -13.9577 152.214 TC 40 995 12 78
1970041S14139 1970 16 SP EA DAWN 1970-02-13 18:00:00 TS -14.0001 152.327 main 418 418 O_____P_PPP_O_ jtwc_sh SH161970 -13.9000 152.500 30 -1 -13.8579 152.481 995 -14.7281 151.430 40 990 -13.8498 152.488 TC 40 995 -13.8649 152.486 1 29 -13.9000 152.400 TC 40 995 11 77
1970041S14139 1970 16 SP EA DAWN 1970-02-13 21:00:00 TS -13.8743 152.894 main 440 436 P_____P_PPP_P_ SH161970 -13.7998 153.007 27 -1 -13.6872 153.042 995 -14.6350 152.107 40 990 -13.7108 153.058 TC 40 995 -13.7522 153.029 1 28 -13.7350 153.008 TC 40 995 11 77
1970041S14139 1970 16 SP EA DAWN 1970-02-13 23:00:00 TS -13.7946 153.264 995 bom main 456 456 P_____O_PPP_P_ SH161970 -13.7332 153.333 25 -1 -13.6000 153.400 995 -14.5483 152.570 40 990 -13.6321 153.423 TC 40 995 -13.6769 153.380 1 27 -13.6386 153.409 TC 40 995 11 78
1970041S14139 1970 16 SP EA DAWN 1970-02-14 00:00:00 TS -13.7591 153.446 main 463 461 O_____P_OOP_O_ jtwc_sh SH161970 -13.7000 153.500 25 -1 -13.5726 153.572 995 -14.5000 152.800 40 990 -13.6000 153.600 TC 40 995 -13.6408 153.553 1 27 -13.6000 153.600 TC 40 995 11 79
1970041S14139 1970 16 SP EA DAWN 1970-02-14 03:00:00 TS -13.6611 153.988 main 499 499 P_____P_PPP_P_ SH161970 -13.5850 154.050 25 -1 -13.5177 154.072 995 -14.3324 153.460 40 990 -13.5343 154.107 TC 40 995 -13.5461 154.064 1 25 -13.5273 154.115 TC 40 995 11 80
1970041S14139 1970 16 SP EA DAWN 1970-02-14 05:00:00 TS -13.6085 154.345 995 bom main 515 515 P_____O_PPO_P_ SH161970 -13.5219 154.420 25 -1 -13.5000 154.400 995 -14.2017 153.903 40 990 -13.5081 154.436 TC 40 995 -13.5000 154.400 1 25 -13.5056 154.439 TC 40 995 11 82
1970041S14139 1970 16 SP EA DAWN 1970-02-14 06:00:00 TS -13.5872 154.523 main 532 532 O_____P_POP_O_ jtwc_sh SH161970 -13.5000 154.600 25 -1 -13.4931 154.567 995 -14.1349 154.124 40 990 -13.5000 154.600 TC 40 995 -13.4827 154.567 1 25 -13.5000 154.600 TC 40 995 10 85
1970041S14139 1970 16 SP EA DAWN 1970-02-14 09:00:00 TS -13.5484 155.046 main 569 569 P_____P_PPP_P_ SH161970 -13.4849 155.107 27 -1 -13.4912 155.067 995 -13.9449 154.776 40 990 -13.4893 155.100 TC 40 995 -13.4515 155.064 1 28 -13.4924 155.100 TC 40 995 10 87
1970041S14139 1970 16 SP EA DAWN 1970-02-14 11:00:00 TS -13.5385 155.390 995 bom main 605 603 P_____O_PPP_P_ SH161970 -13.4947 155.436 29 -1 -13.5000 155.400 995 -13.8410 155.196 40 990 -13.4949 155.433 TC 40 995 -13.4468 155.392 1 30 -13.4973 155.433 TC 40 995 10 89
1970041S14139 1970 16 SP EA DAWN 1970-02-14 12:00:00 TS -13.5356 155.561 main 599 582 O_____P_OOP_O_ jtwc_sh SH161970 -13.5000 155.600 30 -1 -13.5005 155.567 995 -13.8000 155.400 40 990 -13.5000 155.600 TC 40 995 -13.4490 155.557 1 30 -13.5000 155.600 TC 40 995 10 89
1970041S14139 1970 16 SP EA DAWN 1970-02-14 15:00:00 TS -13.5255 156.074 main 578 555 P_____P_PPP_P_ SH161970 -13.4924 156.093 32 -1 -13.5062 156.067 995 -13.7248 155.995 40 990 -13.4981 156.110 TC 40 995 -13.4720 156.058 1 33 -13.4924 156.100 TC 40 995 10 90
1970041S14139 1970 16 SP EA DAWN 1970-02-14 17:00:00 TS -13.5292 156.416 main 555 541 P_____P_PPO_P_ SH161970 -13.4942 156.428 34 0 -13.5162 156.400 995 -13.7040 156.375 40 990 -13.5013 156.451 TC 40 995 -13.5000 156.400 2 35 -13.4942 156.433 TC 40 995 10 91
1970041S14139 1970 16 SP EA DAWN 1970-02-14 18:00:00 TS -13.5343 156.591 main 541 517 O_____P_PPP_O_ jtwc_sh SH161970 -13.5000 156.600 35 0 -13.5238 156.567 995 -13.7020 156.560 40 990 -13.5056 156.621 TC 40 995 -13.5089 156.586 2 34 -13.5000 156.600 TC 40 995 10 93
1970041S14139 1970 16 SP EA DAWN 1970-02-14 21:00:00 TS -13.5662 157.120 main 517 499 P_____P_PPP_P_ SH161970 -13.5275 157.150 32 -1 -13.5609 157.067 995 -13.7281 157.095 40 990 -13.5353 157.121 TC 40 995 -13.5495 157.161 2 31 -13.5349 157.100 TC 40 995 10 95
1970041S14139 1970 16 SP EA DAWN 1970-02-14 23:00:00 TS -13.6070 157.471 995 bom main 493 488 P_____O_PPP_P_ SH161970 -13.5693 157.520 30 -1 -13.6000 157.400 995 -13.7712 157.435 40 990 -13.5738 157.443 TC 40 995 -13.5904 157.545 2 30 -13.5749 157.433 TC 40 995 10 97
1970041S14139 1970 16 SP EA DAWN 1970-02-15 00:00:00 TS -13.6333 157.645 main 488 474 O_____P_OOP_O_ jtwc_sh SH161970 -13.6000 157.700 30 -1 -13.6172 157.584 995 -13.8000 157.600 40 990 -13.6000 157.600 TC 40 995 -13.6157 157.734 2 29 -13.6000 157.600 TC 40 995 10 101
1970041S14139 1970 16 SP EA DAWN 1970-02-15 03:00:00 TS -13.7338 158.162 main 470 469 P_____P_PPP_P_ SH161970 -13.7274 158.222 27 -1 -13.6868 158.134 995 -13.8945 158.107 43 987 -13.7016 158.059 TC 40 995 -13.7138 158.274 2 26 -13.6850 158.115 TC 40 995 10 103
1970041S14139 1970 16 SP EA DAWN 1970-02-15 05:00:00 TS -13.8233 158.485 main 469 466 P_____P_PPO_P_ SH161970 -13.8390 158.547 25 -1 -13.7543 158.475 995 -13.9821 158.428 46 985 -13.7900 158.352 TC 40 995 -13.8000 158.600 1 25 -13.7583 158.445 TC 40 995 10 107
1970041S14139 1970 16 SP EA DAWN 1970-02-15 06:00:00 TS -13.8740 158.636 main 477 471 O_____P_PPP_O_ jtwc_sh SH161970 -13.9000 158.700 25 -1 -13.7963 158.631 995 -14.0323 158.582 47 985 -13.8397 158.495 TC 40 995 -13.8497 158.746 1 24 -13.8000 158.600 TC 40 995 9 111
1970041S14139 1970 16 SP EA DAWN 1970-02-15 08:00:00 TS -13.9847 158.920 995 bom main 474 467 P_____O_PPP_P_ SH161970 -14.0254 158.993 23 -1 -13.9000 158.900 995 -14.1436 158.877 50 983 -13.9489 158.773 TC 40 995 -13.9635 159.016 1 22 -13.8866 158.888 TC 40 995 9 113
1970041S14139 1970 16 SP EA DAWN 1970-02-15 09:00:00 TS -14.0457 159.051 main 461 461 P_____P_PPP_P_ SH161970 -14.0924 159.130 22 -1 -13.9617 159.007 995 -14.2040 159.016 51 982 -14.0079 158.909 TC 40 995 -14.0265 159.141 1 21 -13.9349 159.023 TC 40 995 8 118
1970041S14139 1970 16 SP EA DAWN 1970-02-15 11:00:00 TS -14.1759 159.296 995 bom main 467 461 P_____O_PPP_P_ SH161970 -14.2307 159.383 20 -1 -14.1000 159.200 995 -14.3325 159.278 53 980 -14.1337 159.172 TC 40 995 -14.1618 159.375 1 20 -14.0416 159.278 TC 40 995 8 119
1970041S14139 1970 16 SP EA DAWN 1970-02-15 12:00:00 TS -14.2431 159.413 main 461 458 O_____P_OOP_O_ jtwc_sh SH161970 -14.3000 159.500 20 -1 -14.1688 159.308 995 -14.4000 159.400 55 980 -14.2000 159.300 TC 40 995 -14.2329 159.486 1 19 -14.1000 159.400 TC 40 995 8 121
1970041S14139 1970 16 SP EA DAWN 1970-02-15 15:00:00 TS -14.4432 159.752 main 457 457 P_____P_PPP_P_ SH161970 -14.4999 159.815 17 -1 -14.3829 159.657 995 -14.5827 159.734 55 980 -14.3992 159.688 TC 40 995 -14.4532 159.799 1 16 -14.2849 159.758 TC 40 995 8 122
1970041S14139 1970 16 SP EA DAWN 1970-02-15 17:00:00 TS -14.5835 159.965 main 468 463 P_____P_PPO_P_ SH161970 -14.6333 160.005 15 -1 -14.5314 159.900 995 -14.7175 159.928 55 980 -14.5443 159.934 TC 40 995 -14.6000 160.000 1 15 -14.4250 159.986 TC 40 995 8 124
1970041S14139 1970 16 SP MM DAWN 1970-02-15 18:00:00 TS -14.6537 160.072 main 474 469 O_____P_PPP_O_ jtwc_sh SH161970 -14.7000 160.100 15 -1 -14.6073 160.022 995 -14.7895 160.018 55 980 -14.6198 160.053 TC 40 995 -14.6592 160.112 1 15 -14.5000 160.100 TC 40 995 8 125
1970041S14139 1970 16 SP MM DAWN 1970-02-15 21:00:00 TS -14.8713 160.392 main 483 480 P_____P_PPP_P_ SH161970 -14.9000 160.400 15 -1 -14.8405 160.379 995 -15.0266 160.268 55 980 -14.8555 160.391 TC 40 995 -14.8340 160.438 1 15 -14.7425 160.465 TC 40 995 8 126
1970041S14139 1970 16 SP MM DAWN 1970-02-15 23:00:00 TS -15.0226 160.595 main 487 487 P_____O_PPP_P_ SH161970 -15.0333 160.600 15 -1 -15.0000 160.600 995 -15.2044 160.424 55 980 -15.0179 160.600 TC 40 995 -14.9549 160.645 1 15 -14.9141 160.695 TC 40 995 7 128
1970041S14139 1970 16 SP MM DAWN 1970-02-16 00:00:00 TS -15.0981 160.692 55 980 wellington main 496 493 O_____P_OOP_O_ jtwc_sh SH161970 -15.1000 160.700 15 -1 -15.0678 160.700 995 -15.3000 160.500 55 980 -15.1000 160.700 TC 40 995 -15.0188 160.746 1 15 -15.0000 160.800 TC 40 995 7 129
1970041S14139 1970 16 SP MM DAWN 1970-02-16 03:00:00 TS -15.3212 160.977 main 511 511 P_____P_PPP_P_ SH161970 -15.2850 161.008 15 -1 -15.2718 160.980 995 -15.6140 160.744 55 980 -15.3102 161.007 TC 40 995 -15.2324 161.028 1 15 -15.2499 161.065 TC 40 995 7 131
1970041S14139 1970 16 SP MM DAWN 1970-02-16 05:00:00 TS -15.4826 161.154 main 530 530 P_____P_PPO_P_ SH161970 -15.4219 161.206 15 -1 -15.4186 161.150 995 -15.8434 160.898 55 980 -15.4557 161.195 TC 40 995 -15.4000 161.200 1 15 -15.4166 161.222 TC 40 995 7 135
1970041S14139 1970 16 SP MM DAWN 1970-02-16 06:00:00 TS -15.5692 161.240 main 541 540 O_____P_PPP_O_ jtwc_sh SH161970 -15.5000 161.300 15 -1 -15.4982 161.231 995 -15.9624 160.973 55 980 -15.5324 161.283 TC 40 995 -15.4916 161.291 1 14 -15.5000 161.300 TC 40 995 7 139
1970041S14139 1970 16 SP MM DAWN 1970-02-16 09:00:00 TS -15.8511 161.491 main 549 538 P_____P_PPP_P_ SH161970 -15.7700 161.580 12 -1 -15.7745 161.459 995 -16.3296 161.190 55 980 -15.7884 161.517 TC 40 995 -15.7975 161.547 1 13 -15.7275 161.565 TC 40 995 8 142
1970041S14139 1970 16 SP MM DAWN 1970-02-16 11:00:00 TS -16.0653 161.639 main 529 514 P_____O_PPP_P_ SH161970 -15.9833 161.736 10 -1 -16.0000 161.600 995 -16.5772 161.331 55 980 -15.9886 161.645 TC 40 995 -16.0250 161.697 1 12 -15.8995 161.728 TC 40 995 8 148
1970041S14139 1970 16 SP MM DAWN 1970-02-16 12:00:00 TS -16.1818 161.705 55 980 wellington main 514 489 O_____P_OOP_O_ jtwc_sh SH161970 -16.1000 161.800 10 -1 -16.1272 161.673 995 -16.7000 161.400 55 980 -16.1000 161.700 TC 40 995 -16.1451 161.764 1 12 -16.0000 161.800 TC 40 995 8 153
1970041S14139 1970 16 SP MM DAWN 1970-02-16 14:00:00 TS -16.4270 161.826 main 489 474 P_____O_PPP_P_ SH161970 -16.3400 161.901 10 -1 -16.4000 161.800 995 -16.9177 161.568 52 981 -16.3568 161.806 TC 40 995 -16.3969 161.881 1 11 -16.2375 161.927 TC 40 995 8 156
1970041S14139 1970 16 SP MM DAWN 1970-02-16 15:00:00 TS -16.5568 161.877 main 464 440 P_____P_PPP_P_ SH161970 -16.4700 161.938 10 -1 -16.5373 161.852 995 -17.0257 161.652 51 982 -16.4964 161.850 TC 40 995 -16.5281 161.928 1 10 -16.3700 161.980 TC 40 995 8 162
1970041S14139 1970 16 SP MM DAWN 1970-02-16 17:00:00 TS -16.8298 161.957 main 440 430 P_____P_PPO_P_ SH161970 -16.7500 161.986 10 -1 -16.8189 161.930 995 -17.2438 161.814 48 984 -16.7927 161.920 TC 40 995 -16.8000 162.000 1 10 -16.6531 162.067 TC 40 995 9 166
1970041S14139 1970 16 SP MM DAWN 1970-02-16 18:00:00 TS -16.9718 161.988 main 420 383 O_____P_PPP_O_ jtwc_sh SH161970 -16.9000 162.000 10 -1 -16.9627 161.956 995 -17.3551 161.889 47 985 -16.9473 161.947 TC 40 995 -16.9378 162.026 1 10 -16.8000 162.100 TC 40 995 9 171
1970041S14139 1970 16 SP MM DAWN 1970-02-16 21:00:00 TS -17.4215 162.051 main 377 349 P_____P_PPP_P_ SH161970 -17.4000 162.023 12 -1 -17.4025 161.998 995 -17.7070 162.083 43 987 -17.4246 161.996 TC 40 995 -17.3737 162.055 1 11 -17.2425 162.180 TC 40 995 9 175
1970041S14139 1970 16 SP MM DAWN 1970-02-16 23:00:00 TS -17.7301 162.062 main 349 332 P_____O_PPP_P_ SH161970 -17.7395 162.011 14 -1 -17.7000 162.000 995 -17.9632 162.171 41 989 -17.7435 162.004 TC 40 995 -17.6774 162.040 1 12 -17.5474 162.200 TC 40 995 9 179
1970041S14139 1970 16 SP MM DAWN 1970-02-17 00:00:00 TS -17.8828 162.062 40 990 wellington main 332 306 O_____P_OOP_O_ jtwc_sh SH161970 -17.9000 162.000 15 -1 -17.8485 162.006 995 -18.1000 162.200 40 990 -17.9000 162.000 TC 40 995 -17.8314 162.025 1 12 -17.7000 162.200 TC 40 995 9 0
1970041S14139 1970 16 SP MM DAWN 1970-02-17 03:00:00 TS -18.3240 162.037 main 306 283 P_____P_PPP_P_ SH161970 -18.3075 161.965 15 -1 -18.2990 161.996 995 -18.5770 162.229 40 990 -18.3321 161.980 TC 40 995 -18.2952 161.958 1 14 -18.1500 162.165 TC 40 995 9 184
1970041S14139 1970 16 SP MM DAWN 1970-02-17 05:00:00 TS -18.6169 161.998 main 283 275 P_____P_PPO_P_ SH161970 -18.5662 161.925 15 -1 -18.6014 161.969 995 -18.9183 162.203 40 990 -18.6162 161.943 TC 40 995 -18.6000 161.900 1 15 -18.4500 162.122 TC 40 995 9 188
1970041S14139 1970 16 SP MM DAWN 1970-02-17 06:00:00 TS -18.7639 161.975 main 268 251 O_____P_PPP_O_ jtwc_sh SH161970 -18.7000 161.900 15 -1 -18.7526 161.950 995 -19.0922 162.178 40 990 -18.7574 161.918 TC 40 995 -18.7450 161.883 1 15 -18.6000 162.100 TC 40 995 9 189
1970041S14139 1970 16 SP MM DAWN 1970-02-17 09:00:00 TS -19.2180 161.895 main 251 241 P_____P_PPP_P_ SH161970 -19.1500 161.815 17 -1 -19.2036 161.870 995 -19.6114 162.063 40 990 -19.1790 161.821 TC 40 995 -19.1744 161.817 1 16 -19.0575 162.065 TC 40 995 9 191
1970041S14139 1970 16 SP MM DAWN 1970-02-17 11:00:00 TS -19.5173 161.825 main 246 242 P_____O_PPP_P_ SH161970 -19.4531 161.742 19 -1 -19.5000 161.800 995 -19.9426 161.959 40 990 -19.4595 161.742 TC 40 995 -19.4573 161.759 1 17 -19.3557 162.028 TC 40 995 9 194
1970041S14139 1970 16 SP MM DAWN 1970-02-17 12:00:00 TS -19.6633 161.785 40 990 wellington main 239 236 O_____P_OOP_O_ jtwc_sh SH161970 -19.6000 161.700 20 -1 -19.6450 161.771 995 -20.1000 161.900 40 990 -19.6000 161.700 TC 40 995 -19.5981 161.726 1 17 -19.5000 162.000 TC 40 995 9 196
1970041S14139 1970 16 SP MM DAWN 1970-02-17 15:00:00 TS -20.0750 161.655 main 241 241 P_____P_PPP_P_ SH161970 -20.0000 161.565 20 -1 -20.0744 161.664 995 -20.5068 161.730 40 990 -20.0248 161.595 TC 40 995 -20.0192 161.603 1 19 -19.9000 161.865 TC 40 995 9 198
1970041S14139 1970 16 SP MM DAWN 1970-02-17 17:00:00 TS -20.3449 161.550 main 250 250 P_____P_PPO_P_ SH161970 -20.2636 161.458 20 -1 -20.3572 161.574 995 -20.7581 161.592 40 990 -20.3081 161.513 TC 40 995 -20.3000 161.500 1 20 -20.1636 161.755 TC 40 995 9 201
1970041S14139 1970 16 SP MM DAWN 1970-02-17 18:00:00 TS -20.4815 161.493 main 261 261 O_____P_PPP_O_ jtwc_sh SH161970 -20.4000 161.400 20 -1 -20.4980 161.524 995 -20.8799 161.517 40 990 -20.4497 161.467 TC 40 995 -20.4429 161.444 1 19 -20.3000 161.700 TC 40 995 9 202
1970041S14139 1970 16 SP MM DAWN 1970-02-17 21:00:00 TS -20.9077 161.310 main 288 288 P_____P_PPP_P_ SH161970 -20.8500 161.215 17 -1 -20.9191 161.344 995 -21.2380 161.271 40 990 -20.8748 161.305 TC 40 995 -20.8721 161.250 1 18 -20.7499 161.572 TC 40 995 9 203
1970041S14139 1970 16 SP MM DAWN 1970-02-17 23:00:00 TS -21.1932 161.169 main 308 308 P_____O_PPP_P_ SH161970 -21.1531 161.075 15 -1 -21.2000 161.200 995 -21.4778 161.092 40 990 -21.1582 161.174 TC 40 995 -21.1575 161.102 1 17 -21.0530 161.467 TC 40 995 10 205
1970041S14139 1970 16 SP MM DAWN 1970-02-18 00:00:00 TS -21.3350 161.092 40 990 wellington main 321 321 O_____P_OOP_O_ jtwc_sh SH161970 -21.3000 161.000 15 -1 -21.3454 161.120 995 -21.6000 161.000 40 990 -21.3000 161.100 TC 40 995 -21.2996 161.024 1 17 -21.2000 161.400 TC 40 995 10 210
1970041S14139 1970 16 SP MM DAWN 1970-02-18 03:00:00 TS -21.7468 160.830 main 367 367 P_____P_PPP_P_ SH161970 -21.7000 160.757 15 -1 -21.7831 160.848 995 -21.9849 160.705 40 990 -21.7373 160.843 TC 38 995 -21.7223 160.774 1 15 -21.6000 161.122 TC 40 995 10 212
1970041S14139 1970 16 SP MM DAWN 1970-02-18 05:00:00 TS -22.0196 160.639 main 400 400 P_____P_PPO_P_ SH161970 -21.9636 160.586 15 -1 -22.0727 160.645 995 -22.2458 160.498 40 990 -22.0284 160.648 TC 37 995 -22.0000 160.600 1 15 -21.8636 160.908 TC 40 995 10 213
1970041S14139 1970 16 SP MM DAWN 1970-02-18 06:00:00 TS -22.1579 160.543 main 420 420 O_____P_PPP_O_ jtwc_sh SH161970 -22.1000 160.500 15 -1 -22.2157 160.540 995 -22.3778 160.393 40 990 -22.1727 160.545 TC 37 995 -22.1391 160.520 1 15 -22.0000 160.800 TC 40 995 10 212
1970041S14139 1970 16 SP MM DAWN 1970-02-18 09:00:00 TS -22.5909 160.258 main 461 461 P_____P_PPP_P_ SH161970 -22.5574 160.257 17 -1 -22.6339 160.216 995 -22.7818 160.084 40 990 -22.5967 160.225 TC 36 995 -22.5518 160.270 1 16 -22.4574 160.500 TC 37 995 10 212
1970041S14139 1970 16 SP MM DAWN 1970-02-18 11:00:00 TS -22.8751 160.067 996 bom main 496 496 P_____O_PPP_P_ SH161970 -22.8588 160.089 19 -1 -22.9000 160.000 996 -23.0588 159.890 40 990 -22.8684 160.007 TC 35 995 -22.8221 160.094 1 17 -22.7588 160.300 TC 35 995 10 212
1970041S14139 1970 16 SP EA DAWN 1970-02-18 12:00:00 TS -23.0117 159.973 main 511 511 O_____P_OOP_O_ jtwc_sh SH161970 -23.0000 160.000 20 -1 -23.0262 159.906 996 -23.2000 159.800 40 990 -23.0000 159.900 TC 35 996 -22.9555 160.003 1 17 -22.9000 160.200 TC 35 996 9 214
1970041S14139 1970 16 SP EA DAWN 1970-02-18 15:00:00 TS -23.3916 159.688 main 562 562 P_____P_PPP_P_ SH161970 -23.3649 159.715 20 -1 -23.3884 159.629 996 -23.6345 159.559 40 990 -23.3763 159.587 TC 35 996 -23.3471 159.711 1 19 -23.2649 159.900 TC 35 996 9 215
1970041S14139 1970 16 SP EA DAWN 1970-02-18 17:00:00 TS -23.6331 159.494 main 592 592 P_____P_PPO_P_ SH161970 -23.5885 159.508 20 -1 -23.6199 159.440 997 -23.9318 159.418 40 990 -23.6143 159.385 TC 35 996 -23.6000 159.500 1 20 -23.4885 159.700 TC 35 996 9 216
1970041S14139 1970 16 SP EA DAWN 1970-02-18 18:00:00 TS -23.7529 159.396 main 613 584 O_____P_PPP_O_ jtwc_sh SH161970 -23.7000 159.400 20 -1 -23.7338 159.342 997 -24.0823 159.353 40 990 -23.7302 159.286 TC 35 997 -23.7237 159.389 1 20 -23.6000 159.600 TC 35 997 9 217
1970041S14139 1970 16 SP EA DAWN 1970-02-18 21:00:00 TS -24.1052 159.098 main 584 560 P_____P_PPP_P_ SH161970 -24.0452 159.058 20 -1 -24.0727 159.031 997 -24.5390 159.171 40 990 -24.0690 158.991 TC 35 997 -24.0847 159.036 1 20 -23.9498 159.315 TC 35 997 9 219
1970041S14139 1970 16 SP EA DAWN 1970-02-18 23:00:00 TS -24.3302 158.889 998 bom main 560 549 P_____O_PPP_P_ SH161970 -24.2813 158.820 20 -1 -24.3000 158.800 998 -24.8461 159.056 40 990 -24.2901 158.797 TC 35 997 -24.3185 158.787 1 20 -24.1832 159.111 TC 35 997 8 221
1970041S14139 1970 16 SP EA DAWN 1970-02-19 00:00:00 TS -24.4248 158.793 main 549 505 O_____P_OOP_O_ jtwc_sh SH161970 -24.4000 158.700 20 -1 -24.4151 158.676 998 -25.0000 159.000 40 990 -24.4000 158.700 TC 35 998 -24.4338 158.659 1 20 -24.3000 159.000 TC 35 998 9 228
1970041S14139 1970 16 SP EA DAWN 1970-02-19 03:00:00 TS -24.7187 158.422 main 505 483 ______P___P_P_ SH161970 -1 -24.7650 158.278 1001 TC -24.7750 158.266 1 20 -24.6503 158.621 TC 27 1001 9 228
1970041S14139 1970 16 SP EA DAWN 1970-02-19 05:00:00 TS -24.9418 158.171 1004 bom main 483 483 ______O___O_P_ SH161970 -1 -25.0000 158.000 1004 TC -25.0000 158.000 1 20 -24.8836 158.342 TC 22 1003 7 216
1970041S14139 1970 16 SP EA DAWN 1970-02-19 06:00:00 TS -25.0000 158.200 main 483 ____________O_ -1 TC 1 -25.0000 158.200 TC 20 1004 4 0

Digital Typhoon Data and Search

About IBTrACS Database

This database is a web-friendly format of International Best Track Archive for Climate Stewardship (IBTrACS), a global best track data archive curated by NOAA dating back to 1842.

Updated: 2021-11-26